Airfield :
LOGIN :

Register | Disclaimer

   EN    FR    IT 

 










Legend :    VFR   Marginal VFR   IFR   Intensive IFR   Very Intensive IFR
Visi :
Ceiling :
>= 8 km
>= 3000ft
5 to 8 km
1000 to 3000 ft
1500m to 5 km
500 to 1000 ft
800 to 1500m
200 to 500 ft
< 800m
< 200 ft
Symbols :   Thunderstorms  Fog  Heavy snow  Heavy precipitations  Wind > 20 kt
SIGMETs :     Misc.  Thunderstorms  Icing  Turbulence  Mountain Waves  Volcanic Ashes






- Airport Elevation : 154 ft
- IATA code : SZZ


EPSC - Szczecin Goleniow

CURRENT METAR :
  • 180300Z 23010KT 180V260 9999 SCT020CB BKN022 BKN026 06/02 Q1011

EXPIRED METARs :
  • 180230Z 23008KT 190V260 9999 FEW013 SCT022CB BKN025 06/02 Q1011
  • 180200Z 22009KT 190V250 9999 FEW020 SCT025 BKN042 06/02 Q1011
  • 180130Z 22008KT 180V260 9999 FEW024 SCT039 06/02 Q1011
  • 180100Z 22008KT CAVOK 06/02 Q1011
  • 180030Z 22008KT 190V250 CAVOK 06/02 Q1011

TAF TAF EPSC
Valid from the 18 at 00:00 until the 19 at 00:00 UTC


172330Z 1800/1824 22010KT 9999 BKN035
TEMPO 1800/1818 -SHRA BKN025CB
PROB40
TEMPO 1809/1818 25020G38KT
PROB30
TEMPO 1809/1815 4000 -TSRA SCT008 BKN014CB



MET'MAP, your aeronautical weather chart ! - Copyright ORBIFLY December 2007 - Disclaimer

ORBIFLY MET'MAP TEAM :

Programming & Development : Alexandra Zaïnal
Concept & original design : Baudouin d'Aumeries
Assistance for programming : Marc-Olivier Méhu
Technical & hardware support : Manuel Goepfert

Contact : metmap@orbifly.com




SOURCES & CREDITS :

   NOAA